sensor_id;sensor_type;location;lat;lon;timestamp;pressure;altitude;pressure_sealevel;temperature;humidity
75425;BME280;64007;50.632;13.700;2023-12-22T00:00:44;95523.56;;;3.89;100.00
75425;BME280;64007;50.632;13.700;2023-12-22T00:03:32;95517.03;;;3.93;100.00
75425;BME280;64007;50.632;13.700;2023-12-22T00:05:58;95543.72;;;3.98;100.00
75425;BME280;64007;50.632;13.700;2023-12-22T00:08:24;95565.44;;;4.00;100.00
75425;BME280;64007;50.632;13.700;2023-12-22T00:10:49;95518.25;;;3.98;100.00
75425;BME280;64007;50.632;13.700;2023-12-22T00:13:15;95528.38;;;3.93;100.00
75425;BME280;64007;50.632;13.700;2023-12-22T00:15:41;95564.94;;;3.87;100.00
75425;BME280;64007;50.632;13.700;2023-12-22T00:18:08;95536.56;;;3.90;100.00
75425;BME280;64007;50.632;13.700;2023-12-22T00:20:34;95535.72;;;3.90;100.00
75425;BME280;64007;50.632;13.700;2023-12-22T00:23:00;95550.38;;;4.02;100.00
75425;BME280;64007;50.632;13.700;2023-12-22T00:25:25;95553.84;;;3.93;100.00
75425;BME280;64007;50.632;13.700;2023-12-22T00:27:51;95528.91;;;3.97;100.00
75425;BME280;64007;50.632;13.700;2023-12-22T00:30:17;95546.78;;;4.03;100.00
75425;BME280;64007;50.632;13.700;2023-12-22T00:32:43;95560.06;;;4.01;100.00
75425;BME280;64007;50.632;13.700;2023-12-22T00:35:09;95542.06;;;4.06;100.00
75425;BME280;64007;50.632;13.700;2023-12-22T00:37:35;95548.38;;;4.14;100.00
75425;BME280;64007;50.632;13.700;2023-12-22T00:40:01;95535.66;;;4.09;100.00
75425;BME280;64007;50.632;13.700;2023-12-22T00:42:29;95538.59;;;4.06;100.00
75425;BME280;64007;50.632;13.700;2023-12-22T00:44:55;95547.44;;;4.05;100.00
75425;BME280;64007;50.632;13.700;2023-12-22T00:47:21;95557.44;;;4.01;100.00
75425;BME280;64007;50.632;13.700;2023-12-22T00:49:46;95545.38;;;3.99;100.00
75425;BME280;64007;50.632;13.700;2023-12-22T00:52:12;95566.69;;;3.96;100.00
75425;BME280;64007;50.632;13.700;2023-12-22T00:54:38;95555.06;;;3.98;100.00
75425;BME280;64007;50.632;13.700;2023-12-22T00:57:04;95548.44;;;3.94;100.00
75425;BME280;64007;50.632;13.700;2023-12-22T00:59:30;95561.72;;;3.93;100.00
75425;BME280;64007;50.632;13.700;2023-12-22T01:01:55;95535.28;;;3.94;100.00
75425;BME280;64007;50.632;13.700;2023-12-22T01:04:21;95533.78;;;3.92;100.00
75425;BME280;64007;50.632;13.700;2023-12-22T01:06:47;95562.75;;;3.82;100.00
75425;BME280;64007;50.632;13.700;2023-12-22T01:09:13;95575.16;;;3.90;100.00
75425;BME280;64007;50.632;13.700;2023-12-22T01:11:41;95660.94;;;3.91;100.00
75425;BME280;64007;50.632;13.700;2023-12-22T01:14:06;95596.59;;;3.95;100.00
75425;BME280;64007;50.632;13.700;2023-12-22T01:16:33;95588.84;;;3.93;100.00
75425;BME280;64007;50.632;13.700;2023-12-22T01:18:58;95580.16;;;3.83;100.00
75425;BME280;64007;50.632;13.700;2023-12-22T01:21:24;95579.75;;;3.78;100.00
75425;BME280;64007;50.632;13.700;2023-12-22T01:23:50;95571.56;;;3.91;100.00
75425;BME280;64007;50.632;13.700;2023-12-22T01:26:15;95586.94;;;3.86;100.00
75425;BME280;64007;50.632;13.700;2023-12-22T01:28:41;95585.03;;;3.78;100.00
75425;BME280;64007;50.632;13.700;2023-12-22T01:31:07;95604.34;;;3.87;100.00
75425;BME280;64007;50.632;13.700;2023-12-22T01:33:32;95599.38;;;3.84;100.00
75425;BME280;64007;50.632;13.700;2023-12-22T01:35:58;95596.34;;;3.88;100.00
75425;BME280;64007;50.632;13.700;2023-12-22T01:38:25;95602.13;;;3.92;100.00
75425;BME280;64007;50.632;13.700;2023-12-22T01:40:50;95624.03;;;3.83;100.00
75425;BME280;64007;50.632;13.700;2023-12-22T01:43:16;95605.50;;;3.74;100.00
75425;BME280;64007;50.632;13.700;2023-12-22T01:45:48;95614.06;;;3.76;100.00
75425;BME280;64007;50.632;13.700;2023-12-22T01:48:14;95598.59;;;3.73;100.00
75425;BME280;64007;50.632;13.700;2023-12-22T01:50:40;95624.75;;;3.65;100.00
75425;BME280;64007;50.632;13.700;2023-12-22T01:53:06;95620.16;;;3.58;100.00
75425;BME280;64007;50.632;13.700;2023-12-22T01:55:33;95608.56;;;3.60;100.00
75425;BME280;64007;50.632;13.700;2023-12-22T01:57:59;95633.16;;;3.59;100.00
75425;BME280;64007;50.632;13.700;2023-12-22T02:00:25;95615.47;;;3.52;100.00
75425;BME280;64007;50.632;13.700;2023-12-22T02:02:52;95623.78;;;3.47;100.00
75425;BME280;64007;50.632;13.700;2023-12-22T02:05:18;95618.25;;;3.50;100.00
75425;BME280;64007;50.632;13.700;2023-12-22T02:07:45;95630.13;;;3.54;100.00
75425;BME280;64007;50.632;13.700;2023-12-22T02:10:11;95619.63;;;3.54;100.00
75425;BME280;64007;50.632;13.700;2023-12-22T02:12:37;95610.22;;;3.61;100.00
75425;BME280;64007;50.632;13.700;2023-12-22T02:15:04;95620.31;;;3.56;100.00
75425;BME280;64007;50.632;13.700;2023-12-22T02:20:04;95638.72;;;3.37;100.00
75425;BME280;64007;50.632;13.700;2023-12-22T02:22:31;95636.22;;;3.26;100.00
75425;BME280;64007;50.632;13.700;2023-12-22T02:24:57;95619.63;;;3.15;100.00
75425;BME280;64007;50.632;13.700;2023-12-22T02:30:24;95604.69;;;2.97;100.00
75425;BME280;64007;50.632;13.700;2023-12-22T02:32:51;95616.59;;;3.10;100.00
75425;BME280;64007;50.632;13.700;2023-12-22T02:35:20;95620.16;;;3.09;100.00
75425;BME280;64007;50.632;13.700;2023-12-22T02:37:47;95628.88;;;3.10;100.00
75425;BME280;64007;50.632;13.700;2023-12-22T02:40:15;95629.28;;;3.05;100.00
75425;BME280;64007;50.632;13.700;2023-12-22T02:42:41;95624.88;;;3.06;100.00
75425;BME280;64007;50.632;13.700;2023-12-22T02:45:14;95642.28;;;3.17;100.00
75425;BME280;64007;50.632;13.700;2023-12-22T02:47:40;95629.28;;;3.15;100.00
75425;BME280;64007;50.632;13.700;2023-12-22T02:50:07;95628.75;;;3.11;100.00
75425;BME280;64007;50.632;13.700;2023-12-22T02:52:33;95625.69;;;3.06;100.00
75425;BME280;64007;50.632;13.700;2023-12-22T02:54:59;95644.91;;;3.17;100.00
75425;BME280;64007;50.632;13.700;2023-12-22T02:57:26;95642.28;;;3.07;100.00
75425;BME280;64007;50.632;13.700;2023-12-22T02:59:52;95614.69;;;3.22;100.00
75425;BME280;64007;50.632;13.700;2023-12-22T03:02:18;95618.25;;;3.11;100.00
75425;BME280;64007;50.632;13.700;2023-12-22T03:04:43;95616.31;;;3.04;100.00
75425;BME280;64007;50.632;13.700;2023-12-22T03:07:12;95628.59;;;3.03;100.00
75425;BME280;64007;50.632;13.700;2023-12-22T03:09:38;95619.91;;;3.12;100.00
75425;BME280;64007;50.632;13.700;2023-12-22T03:12:04;95625.44;;;3.09;100.00
75425;BME280;64007;50.632;13.700;2023-12-22T03:14:33;95645.31;;;3.02;100.00
75425;BME280;64007;50.632;13.700;2023-12-22T03:16:59;95645.47;;;3.10;100.00
75425;BME280;64007;50.632;13.700;2023-12-22T03:19:25;95643.44;;;3.24;100.00
75425;BME280;64007;50.632;13.700;2023-12-22T03:21:51;95621.84;;;3.39;100.00
75425;BME280;64007;50.632;13.700;2023-12-22T03:24:17;95637.19;;;3.25;100.00
75425;BME280;64007;50.632;13.700;2023-12-22T03:26:48;95645.09;;;3.25;100.00
75425;BME280;64007;50.632;13.700;2023-12-22T03:29:14;95650.72;;;3.10;100.00
75425;BME280;64007;50.632;13.700;2023-12-22T03:31:40;95623.91;;;2.97;100.00
75425;BME280;64007;50.632;13.700;2023-12-22T03:34:06;95621.69;;;3.02;100.00
75425;BME280;64007;50.632;13.700;2023-12-22T03:36:32;95629.28;;;3.05;100.00
75425;BME280;64007;50.632;13.700;2023-12-22T03:38:57;95630.94;;;3.06;100.00
75425;BME280;64007;50.632;13.700;2023-12-22T03:41:23;95641.03;;;2.92;100.00
75425;BME280;64007;50.632;13.700;2023-12-22T03:43:49;95626.25;;;3.00;100.00
75425;BME280;64007;50.632;13.700;2023-12-22T03:46:14;95624.03;;;3.05;100.00
75425;BME280;64007;50.632;13.700;2023-12-22T03:48:40;95620.44;;;3.06;100.00
75425;BME280;64007;50.632;13.700;2023-12-22T03:51:06;95624.59;;;2.99;100.00
75425;BME280;64007;50.632;13.700;2023-12-22T03:53:31;95629.41;;;2.94;100.00
75425;BME280;64007;50.632;13.700;2023-12-22T03:55:57;95611.59;;;3.07;100.00
75425;BME280;64007;50.632;13.700;2023-12-22T03:58:23;95611.19;;;3.02;100.00
75425;BME280;64007;50.632;13.700;2023-12-22T04:00:49;95621.00;;;3.00;100.00
75425;BME280;64007;50.632;13.700;2023-12-22T04:03:14;95611.34;;;3.10;100.00
75425;BME280;64007;50.632;13.700;2023-12-22T04:05:40;95611.91;;;3.24;100.00
75425;BME280;64007;50.632;13.700;2023-12-22T04:08:06;95625.19;;;3.32;100.00
75425;BME280;64007;50.632;13.700;2023-12-22T04:10:32;95616.06;;;3.26;100.00
75425;BME280;64007;50.632;13.700;2023-12-22T04:12:57;95630.13;;;3.15;100.00
75425;BME280;64007;50.632;13.700;2023-12-22T04:15:23;95619.06;;;3.02;100.00
75425;BME280;64007;50.632;13.700;2023-12-22T04:17:49;95619.91;;;3.03;100.00
75425;BME280;64007;50.632;13.700;2023-12-22T04:20:15;95619.88;;;2.93;100.00
75425;BME280;64007;50.632;13.700;2023-12-22T04:22:41;95613.81;;;2.83;100.00
75425;BME280;64007;50.632;13.700;2023-12-22T04:25:08;95616.44;;;2.83;100.00
75425;BME280;64007;50.632;13.700;2023-12-22T04:27:34;95611.19;;;2.83;100.00
75425;BME280;64007;50.632;13.700;2023-12-22T04:30:00;95624.31;;;2.83;100.00
75425;BME280;64007;50.632;13.700;2023-12-22T04:32:26;95608.66;;;2.72;100.00
75425;BME280;64007;50.632;13.700;2023-12-22T04:34:52;95639.97;;;2.64;100.00
75425;BME280;64007;50.632;13.700;2023-12-22T04:37:18;95639.72;;;2.67;100.00
75425;BME280;64007;50.632;13.700;2023-12-22T04:39:44;95631.94;;;2.56;100.00
75425;BME280;64007;50.632;13.700;2023-12-22T04:42:09;95631.78;;;2.47;100.00
75425;BME280;64007;50.632;13.700;2023-12-22T04:44:35;95628.47;;;2.45;100.00
75425;BME280;64007;50.632;13.700;2023-12-22T04:47:01;95638.75;;;2.28;100.00
75425;BME280;64007;50.632;13.700;2023-12-22T04:49:27;95638.00;;;2.16;100.00
75425;BME280;64007;50.632;13.700;2023-12-22T04:51:52;95636.47;;;2.13;100.00
75425;BME280;64007;50.632;13.700;2023-12-22T04:54:18;95638.09;;;2.05;100.00
75425;BME280;64007;50.632;13.700;2023-12-22T04:56:47;95640.50;;;1.97;100.00
75425;BME280;64007;50.632;13.700;2023-12-22T04:59:12;95625.16;;;2.13;100.00
75425;BME280;64007;50.632;13.700;2023-12-22T05:01:38;95629.19;;;2.17;100.00
75425;BME280;64007;50.632;13.700;2023-12-22T05:04:04;95623.09;;;2.16;100.00
75425;BME280;64007;50.632;13.700;2023-12-22T05:06:29;95641.19;;;2.19;100.00
75425;BME280;64007;50.632;13.700;2023-12-22T05:08:55;95643.41;;;2.24;100.00
75425;BME280;64007;50.632;13.700;2023-12-22T05:11:24;95650.06;;;2.28;100.00
75425;BME280;64007;50.632;13.700;2023-12-22T05:13:50;95656.25;;;2.27;100.00
75425;BME280;64007;50.632;13.700;2023-12-22T05:16:15;95665.88;;;2.17;100.00
75425;BME280;64007;50.632;13.700;2023-12-22T05:18:41;95647.78;;;2.14;100.00
75425;BME280;64007;50.632;13.700;2023-12-22T05:21:07;95648.22;;;2.19;100.00
75425;BME280;64007;50.632;13.700;2023-12-22T05:23:32;95660.81;;;2.25;100.00
75425;BME280;64007;50.632;13.700;2023-12-22T05:25:58;95654.06;;;2.32;100.00
75425;BME280;64007;50.632;13.700;2023-12-22T05:28:24;95645.69;;;2.38;100.00
75425;BME280;64007;50.632;13.700;2023-12-22T05:30:50;95665.69;;;2.39;100.00
75425;BME280;64007;50.632;13.700;2023-12-22T05:33:15;95658.84;;;2.48;100.00
75425;BME280;64007;50.632;13.700;2023-12-22T05:35:41;95663.00;;;2.50;100.00
75425;BME280;64007;50.632;13.700;2023-12-22T05:38:07;95674.19;;;2.53;100.00
75425;BME280;64007;50.632;13.700;2023-12-22T05:40:33;95664.41;;;2.64;100.00
75425;BME280;64007;50.632;13.700;2023-12-22T05:42:59;95653.78;;;2.66;100.00
75425;BME280;64007;50.632;13.700;2023-12-22T05:45:24;95659.03;;;2.66;100.00
75425;BME280;64007;50.632;13.700;2023-12-22T05:47:50;95638.06;;;2.66;100.00
75425;BME280;64007;50.632;13.700;2023-12-22T05:50:16;95630.84;;;2.58;100.00
75425;BME280;64007;50.632;13.700;2023-12-22T05:52:43;95624.25;;;2.64;100.00
75425;BME280;64007;50.632;13.700;2023-12-22T05:55:12;95631.97;;;2.65;100.00
75425;BME280;64007;50.632;13.700;2023-12-22T05:57:38;95647.16;;;2.62;100.00
75425;BME280;64007;50.632;13.700;2023-12-22T06:00:04;95637.78;;;2.78;100.00
75425;BME280;64007;50.632;13.700;2023-12-22T06:02:35;95660.22;;;2.82;100.00
75425;BME280;64007;50.632;13.700;2023-12-22T06:05:01;95663.22;;;2.78;100.00
75425;BME280;64007;50.632;13.700;2023-12-22T06:07:27;95665.94;;;2.67;100.00
75425;BME280;64007;50.632;13.700;2023-12-22T06:09:53;95657.25;;;2.76;100.00
75425;BME280;64007;50.632;13.700;2023-12-22T06:12:18;95695.22;;;2.72;100.00
75425;BME280;64007;50.632;13.700;2023-12-22T06:14:44;95693.84;;;2.68;100.00
75425;BME280;64007;50.632;13.700;2023-12-22T06:17:11;95695.66;;;2.77;100.00
75425;BME280;64007;50.632;13.700;2023-12-22T06:19:36;95682.03;;;2.83;100.00
75425;BME280;64007;50.632;13.700;2023-12-22T06:22:02;95681.97;;;2.73;100.00
75425;BME280;64007;50.632;13.700;2023-12-22T06:24:28;95671.06;;;2.68;100.00
75425;BME280;64007;50.632;13.700;2023-12-22T06:26:54;95665.13;;;2.76;100.00
75425;BME280;64007;50.632;13.700;2023-12-22T06:29:20;95677.56;;;2.74;100.00
75425;BME280;64007;50.632;13.700;2023-12-22T06:31:46;95688.44;;;2.60;100.00
75425;BME280;64007;50.632;13.700;2023-12-22T06:34:18;95694.97;;;2.75;100.00
75425;BME280;64007;50.632;13.700;2023-12-22T06:36:44;95684.06;;;2.79;100.00
75425;BME280;64007;50.632;13.700;2023-12-22T06:39:10;95683.78;;;2.73;100.00
75425;BME280;64007;50.632;13.700;2023-12-22T06:41:36;95718.84;;;2.72;100.00
75425;BME280;64007;50.632;13.700;2023-12-22T06:44:02;95688.59;;;2.68;100.00
75425;BME280;64007;50.632;13.700;2023-12-22T06:46:28;95692.22;;;2.76;100.00
75425;BME280;64007;50.632;13.700;2023-12-22T06:48:56;95700.06;;;2.76;100.00
75425;BME280;64007;50.632;13.700;2023-12-22T06:51:27;95704.38;;;2.77;100.00
75425;BME280;64007;50.632;13.700;2023-12-22T06:53:54;95704.06;;;2.71;100.00
75425;BME280;64007;50.632;13.700;2023-12-22T06:56:32;95712.19;;;2.68;100.00
75425;BME280;64007;50.632;13.700;2023-12-22T06:58:59;95694.94;;;2.65;100.00
75425;BME280;64007;50.632;13.700;2023-12-22T07:03:55;95710.16;;;2.71;100.00
75425;BME280;64007;50.632;13.700;2023-12-22T07:06:23;95705.16;;;2.68;100.00
75425;BME280;64007;50.632;13.700;2023-12-22T07:11:48;95698.28;;;2.77;100.00
75425;BME280;64007;50.632;13.700;2023-12-22T07:14:14;95715.97;;;2.75;100.00
75425;BME280;64007;50.632;13.700;2023-12-22T07:16:41;95709.31;;;2.71;100.00
75425;BME280;64007;50.632;13.700;2023-12-22T07:19:08;95710.97;;;2.72;100.00
75425;BME280;64007;50.632;13.700;2023-12-22T07:21:34;95703.53;;;2.77;100.00
75425;BME280;64007;50.632;13.700;2023-12-22T07:24:00;95704.00;;;2.82;100.00
75425;BME280;64007;50.632;13.700;2023-12-22T07:26:27;95714.72;;;2.79;100.00
75425;BME280;64007;50.632;13.700;2023-12-22T07:28:55;95729.19;;;2.64;100.00
75425;BME280;64007;50.632;13.700;2023-12-22T07:31:21;95738.81;;;2.54;100.00
75425;BME280;64007;50.632;13.700;2023-12-22T07:33:47;95753.13;;;2.49;100.00
75425;BME280;64007;50.632;13.700;2023-12-22T07:36:13;95747.00;;;2.39;100.00
75425;BME280;64007;50.632;13.700;2023-12-22T07:38:39;95751.34;;;2.29;100.00
75425;BME280;64007;50.632;13.700;2023-12-22T07:41:05;95746.38;;;2.26;100.00
75425;BME280;64007;50.632;13.700;2023-12-22T07:43:31;95692.84;;;2.29;100.00
75425;BME280;64007;50.632;13.700;2023-12-22T07:45:57;95758.31;;;2.40;100.00
75425;BME280;64007;50.632;13.700;2023-12-22T07:48:23;95739.03;;;2.41;100.00
75425;BME280;64007;50.632;13.700;2023-12-22T07:50:50;95751.75;;;2.45;100.00
75425;BME280;64007;50.632;13.700;2023-12-22T07:53:19;95758.13;;;2.53;100.00
75425;BME280;64007;50.632;13.700;2023-12-22T07:55:46;95737.19;;;2.62;100.00
75425;BME280;64007;50.632;13.700;2023-12-22T07:58:12;95741.38;;;2.74;100.00
75425;BME280;64007;50.632;13.700;2023-12-22T08:00:38;95731.19;;;2.81;100.00
75425;BME280;64007;50.632;13.700;2023-12-22T08:03:04;95726.97;;;2.69;100.00
75425;BME280;64007;50.632;13.700;2023-12-22T08:05:30;95726.06;;;2.79;100.00
75425;BME280;64007;50.632;13.700;2023-12-22T08:07:56;95725.81;;;2.82;100.00
75425;BME280;64007;50.632;13.700;2023-12-22T08:10:22;95755.13;;;2.88;100.00
75425;BME280;64007;50.632;13.700;2023-12-22T08:12:47;95780.97;;;2.92;100.00
75425;BME280;64007;50.632;13.700;2023-12-22T08:15:13;95795.50;;;2.75;100.00
75425;BME280;64007;50.632;13.700;2023-12-22T08:17:49;95814.09;;;2.63;100.00
75425;BME280;64007;50.632;13.700;2023-12-22T08:20:18;95806.56;;;2.48;100.00
75425;BME280;64007;50.632;13.700;2023-12-22T08:22:46;95788.47;;;2.45;100.00
75425;BME280;64007;50.632;13.700;2023-12-22T08:25:12;95790.16;;;2.56;100.00
75425;BME280;64007;50.632;13.700;2023-12-22T08:27:39;95814.47;;;2.58;100.00
75425;BME280;64007;50.632;13.700;2023-12-22T08:30:06;95820.81;;;2.56;100.00
75425;BME280;64007;50.632;13.700;2023-12-22T08:32:32;95816.44;;;2.66;100.00
75425;BME280;64007;50.632;13.700;2023-12-22T08:34:58;95808.19;;;2.70;100.00
75425;BME280;64007;50.632;13.700;2023-12-22T08:37:24;95820.47;;;2.70;100.00
75425;BME280;64007;50.632;13.700;2023-12-22T08:39:50;95827.06;;;2.85;100.00
75425;BME280;64007;50.632;13.700;2023-12-22T08:42:17;95857.06;;;2.92;100.00
75425;BME280;64007;50.632;13.700;2023-12-22T08:44:42;95820.19;;;2.94;100.00
75425;BME280;64007;50.632;13.700;2023-12-22T08:47:08;95801.69;;;2.95;100.00
75425;BME280;64007;50.632;13.700;2023-12-22T08:49:34;95810.25;;;2.97;100.00
75425;BME280;64007;50.632;13.700;2023-12-22T08:51:59;95803.09;;;2.99;100.00
75425;BME280;64007;50.632;13.700;2023-12-22T08:54:26;95803.38;;;3.06;100.00
75425;BME280;64007;50.632;13.700;2023-12-22T08:56:52;95794.53;;;3.07;100.00
75425;BME280;64007;50.632;13.700;2023-12-22T08:59:18;95823.13;;;3.00;100.00
75425;BME280;64007;50.632;13.700;2023-12-22T09:01:45;95778.94;;;3.05;100.00
75425;BME280;64007;50.632;13.700;2023-12-22T09:04:11;95779.91;;;3.14;100.00
75425;BME280;64007;50.632;13.700;2023-12-22T09:06:37;95814.19;;;3.12;100.00
75425;BME280;64007;50.632;13.700;2023-12-22T09:09:03;95814.63;;;3.18;100.00
75425;BME280;64007;50.632;13.700;2023-12-22T09:11:29;95788.19;;;3.09;100.00
75425;BME280;64007;50.632;13.700;2023-12-22T09:13:55;95841.13;;;3.14;100.00
75425;BME280;64007;50.632;13.700;2023-12-22T09:16:22;95812.97;;;3.17;100.00
75425;BME280;64007;50.632;13.700;2023-12-22T09:18:48;95807.81;;;3.05;100.00
75425;BME280;64007;50.632;13.700;2023-12-22T09:21:15;95821.91;;;3.04;100.00
75425;BME280;64007;50.632;13.700;2023-12-22T09:23:44;95786.28;;;3.11;100.00
75425;BME280;64007;50.632;13.700;2023-12-22T09:26:12;95824.09;;;2.99;100.00
75425;BME280;64007;50.632;13.700;2023-12-22T09:28:39;95840.97;;;3.06;100.00
75425;BME280;64007;50.632;13.700;2023-12-22T09:31:04;95855.94;;;3.15;100.00
75425;BME280;64007;50.632;13.700;2023-12-22T09:33:32;95842.38;;;3.10;100.00
75425;BME280;64007;50.632;13.700;2023-12-22T09:35:57;95848.16;;;3.04;100.00
75425;BME280;64007;50.632;13.700;2023-12-22T09:38:23;95870.81;;;3.05;100.00
75425;BME280;64007;50.632;13.700;2023-12-22T09:40:50;95874.41;;;3.04;100.00
75425;BME280;64007;50.632;13.700;2023-12-22T09:43:16;95886.03;;;3.11;100.00
75425;BME280;64007;50.632;13.700;2023-12-22T09:45:45;95889.91;;;3.07;100.00
75425;BME280;64007;50.632;13.700;2023-12-22T09:48:12;95874.78;;;3.21;100.00
75425;BME280;64007;50.632;13.700;2023-12-22T09:50:46;95836.78;;;3.25;100.00
75425;BME280;64007;50.632;13.700;2023-12-22T09:53:13;95863.22;;;3.33;100.00
75425;BME280;64007;50.632;13.700;2023-12-22T09:55:42;95863.75;;;3.27;100.00
75425;BME280;64007;50.632;13.700;2023-12-22T09:58:11;95874.69;;;3.32;100.00
75425;BME280;64007;50.632;13.700;2023-12-22T10:00:38;95853.94;;;3.29;100.00
75425;BME280;64007;50.632;13.700;2023-12-22T10:03:06;95869.53;;;3.21;100.00
75425;BME280;64007;50.632;13.700;2023-12-22T10:05:33;95883.28;;;3.13;100.00
75425;BME280;64007;50.632;13.700;2023-12-22T10:08:00;95874.94;;;2.98;100.00
75425;BME280;64007;50.632;13.700;2023-12-22T10:10:28;95889.41;;;2.72;100.00
75425;BME280;64007;50.632;13.700;2023-12-22T10:12:58;95856.41;;;2.48;100.00
75425;BME280;64007;50.632;13.700;2023-12-22T10:15:25;95891.38;;;2.06;100.00
75425;BME280;64007;50.632;13.700;2023-12-22T10:17:52;95877.50;;;1.83;100.00
75425;BME280;64007;50.632;13.700;2023-12-22T10:20:18;95905.63;;;1.70;100.00
75425;BME280;64007;50.632;13.700;2023-12-22T10:22:44;95892.16;;;1.74;100.00
75425;BME280;64007;50.632;13.700;2023-12-22T10:25:10;95876.34;;;1.65;100.00
75425;BME280;64007;50.632;13.700;2023-12-22T10:27:36;95883.59;;;1.72;100.00
75425;BME280;64007;50.632;13.700;2023-12-22T10:30:02;95898.13;;;1.65;100.00
75425;BME280;64007;50.632;13.700;2023-12-22T10:32:29;95940.28;;;1.62;100.00
75425;BME280;64007;50.632;13.700;2023-12-22T10:34:56;95928.25;;;1.48;100.00
75425;BME280;64007;50.632;13.700;2023-12-22T10:37:23;95898.16;;;1.43;100.00
75425;BME280;64007;50.632;13.700;2023-12-22T10:39:52;95921.47;;;1.35;100.00
75425;BME280;64007;50.632;13.700;2023-12-22T10:42:19;95898.41;;;1.29;100.00
75425;BME280;64007;50.632;13.700;2023-12-22T10:44:45;95890.53;;;1.29;100.00
75425;BME280;64007;50.632;13.700;2023-12-22T10:47:11;95888.66;;;1.31;100.00
75425;BME280;64007;50.632;13.700;2023-12-22T10:49:37;95909.81;;;1.28;100.00
75425;BME280;64007;50.632;13.700;2023-12-22T10:52:04;95915.75;;;1.18;100.00
75425;BME280;64007;50.632;13.700;2023-12-22T10:54:30;95927.88;;;1.19;100.00
75425;BME280;64007;50.632;13.700;2023-12-22T10:57:00;95924.34;;;1.20;100.00
75425;BME280;64007;50.632;13.700;2023-12-22T10:59:29;95955.03;;;1.30;100.00
75425;BME280;64007;50.632;13.700;2023-12-22T11:02:00;95935.75;;;1.31;100.00
75425;BME280;64007;50.632;13.700;2023-12-22T11:04:29;95926.00;;;1.44;100.00
75425;BME280;64007;50.632;13.700;2023-12-22T11:06:57;95943.72;;;1.51;100.00
75425;BME280;64007;50.632;13.700;2023-12-22T11:09:24;95926.44;;;1.60;100.00
75425;BME280;64007;50.632;13.700;2023-12-22T11:11:52;95913.34;;;1.82;100.00
75425;BME280;64007;50.632;13.700;2023-12-22T11:14:19;95920.72;;;1.88;100.00
75425;BME280;64007;50.632;13.700;2023-12-22T11:16:47;95902.31;;;2.00;100.00
75425;BME280;64007;50.632;13.700;2023-12-22T11:19:14;95900.09;;;2.27;100.00
75425;BME280;64007;50.632;13.700;2023-12-22T11:21:40;95922.25;;;2.34;100.00
75425;BME280;64007;50.632;13.700;2023-12-22T11:24:07;95918.66;;;2.35;100.00
75425;BME280;64007;50.632;13.700;2023-12-22T11:26:33;95911.16;;;2.42;100.00
75425;BME280;64007;50.632;13.700;2023-12-22T11:28:59;95912.38;;;2.59;100.00
75425;BME280;64007;50.632;13.700;2023-12-22T11:31:27;95899.25;;;2.59;100.00
75425;BME280;64007;50.632;13.700;2023-12-22T11:33:54;95900.09;;;2.59;100.00
75425;BME280;64007;50.632;13.700;2023-12-22T11:36:22;95907.31;;;2.67;100.00
75425;BME280;64007;50.632;13.700;2023-12-22T11:38:48;95871.72;;;2.74;100.00
75425;BME280;64007;50.632;13.700;2023-12-22T11:41:29;95881.72;;;2.80;100.00
75425;BME280;64007;50.632;13.700;2023-12-22T11:43:57;95879.75;;;2.93;100.00
75425;BME280;64007;50.632;13.700;2023-12-22T11:46:24;95851.47;;;3.06;100.00
75425;BME280;64007;50.632;13.700;2023-12-22T11:48:51;95848.16;;;3.04;100.00
75425;BME280;64007;50.632;13.700;2023-12-22T11:51:18;95882.97;;;3.06;100.00
75425;BME280;64007;50.632;13.700;2023-12-22T11:53:44;95866.69;;;3.12;100.00
75425;BME280;64007;50.632;13.700;2023-12-22T11:56:12;95856.50;;;3.19;100.00
75425;BME280;64007;50.632;13.700;2023-12-22T11:58:45;95858.75;;;3.24;100.00
75425;BME280;64007;50.632;13.700;2023-12-22T12:01:19;95849.13;;;3.34;100.00
75425;BME280;64007;50.632;13.700;2023-12-22T12:03:53;95847.34;;;3.44;100.00
75425;BME280;64007;50.632;13.700;2023-12-22T12:08:51;95832.97;;;3.48;100.00
75425;BME280;64007;50.632;13.700;2023-12-22T12:14:31;95838.34;;;3.37;100.00
75425;BME280;64007;50.632;13.700;2023-12-22T12:17:03;95834.22;;;3.44;100.00
75425;BME280;64007;50.632;13.700;2023-12-22T12:19:32;95844.72;;;3.44;100.00
75425;BME280;64007;50.632;13.700;2023-12-22T12:22:00;95839.19;;;3.47;100.00
75425;BME280;64007;50.632;13.700;2023-12-22T12:24:25;95858.56;;;3.46;100.00
75425;BME280;64007;50.632;13.700;2023-12-22T12:26:51;95871.00;;;3.44;100.00
75425;BME280;64007;50.632;13.700;2023-12-22T12:29:17;95876.94;;;3.46;100.00
75425;BME280;64007;50.632;13.700;2023-12-22T12:31:44;95855.03;;;3.66;100.00
75425;BME280;64007;50.632;13.700;2023-12-22T12:34:10;95837.19;;;3.60;100.00
75425;BME280;64007;50.632;13.700;2023-12-22T12:36:38;95838.13;;;3.59;100.00
75425;BME280;64007;50.632;13.700;2023-12-22T12:39:08;95819.03;;;3.57;100.00
75425;BME280;64007;50.632;13.700;2023-12-22T12:41:37;95821.66;;;3.57;100.00
75425;BME280;64007;50.632;13.700;2023-12-22T12:44:06;95810.19;;;3.58;100.00
75425;BME280;64007;50.632;13.700;2023-12-22T12:46:39;95820.38;;;3.42;100.00
75425;BME280;64007;50.632;13.700;2023-12-22T12:49:06;95791.06;;;3.46;100.00
75425;BME280;64007;50.632;13.700;2023-12-22T12:51:36;95804.63;;;3.42;100.00
75425;BME280;64007;50.632;13.700;2023-12-22T12:54:03;95815.94;;;3.33;100.00
75425;BME280;64007;50.632;13.700;2023-12-22T12:56:29;95810.06;;;3.20;100.00
75425;BME280;64007;50.632;13.700;2023-12-22T12:59:01;95813.00;;;3.26;100.00
75425;BME280;64007;50.632;13.700;2023-12-22T13:01:27;95785.56;;;3.09;100.00
75425;BME280;64007;50.632;13.700;2023-12-22T13:03:56;95775.19;;;2.98;100.00